Time;durP1;ratioP1;P1;durP2;ratioP2;P2;SDS_P1;SDS_P2;PMS_P1;PMS_P2;Temp;Humidity;BMP_temperature;BMP_pressure;BME280_temperature;BME280_humidity;BME280_pressure;Samples;Min_cycle;Max_cycle;Signal;HPM_P1;HPM_P2
2021/12/11 00:01:46;;;;;;;41.72;23.52;;;1.10;99.90;;;;;;5007326;28;20022;-51
2021/12/11 00:04:31;;;;;;;49.55;25.02;;;1.10;99.90;;;;;;5005616;28;20034;-54
2021/12/11 00:07:02;;;;;;;38.83;21.90;;;1.10;99.90;;;;;;5000308;28;20447;-52
2021/12/11 00:09:53;;;;;;;43.08;23.17;;;1.10;99.90;;;;;;5008708;28;20551;-52
2021/12/11 00:12:23;;;;;;;40.75;22.17;;;1.10;99.90;;;;;;5009210;28;20088;-51
2021/12/11 00:14:57;;;;;;;46.15;23.73;;;1.10;99.90;;;;;;5007655;28;20543;-53
2021/12/11 00:17:30;;;;;;;45.88;24.17;;;1.10;99.90;;;;;;5009793;28;20427;-50
2021/12/11 00:19:56;;;;;;;43.30;22.80;;;1.10;99.90;;;;;;5008844;28;20026;-49
2021/12/11 00:22:28;;;;;;;42.10;23.90;;;1.10;99.90;;;;;;5009035;28;20273;-55
2021/12/11 00:25:05;;;;;;;46.08;24.63;;;1.10;99.90;;;;;;5007903;28;20087;-51
2021/12/11 00:27:32;;;;;;;45.05;23.02;;;1.10;99.90;;;;;;5008601;28;20033;-53
2021/12/11 00:29:59;;;;;;;46.63;24.67;;;1.10;99.90;;;;;;5009151;28;20476;-49
2021/12/11 00:32:27;;;;;;;44.78;23.15;;;1.10;99.90;;;;;;5007902;28;20029;-50
2021/12/11 00:35:05;;;;;;;51.60;25.40;;;1.10;99.90;;;;;;5008906;28;20746;-51
2021/12/11 00:37:32;;;;;;;52.83;27.10;;;1.10;99.90;;;;;;5008616;28;20413;-50
2021/12/11 00:40:04;;;;;;;52.22;27.88;;;1.10;99.90;;;;;;5008737;28;20030;-57
2021/12/11 00:42:34;;;;;;;53.65;24.48;;;1.10;99.90;;;;;;5009060;28;20361;-55
2021/12/11 00:45:10;;;;;;;46.92;23.88;;;1.10;99.90;;;;;;5008815;28;20034;-53
2021/12/11 00:47:43;;;;;;;43.80;23.40;;;1.10;99.90;;;;;;5008587;28;20515;-55
2021/12/11 00:50:12;;;;;;;40.50;23.50;;;1.10;99.90;;;;;;5008888;28;20042;-55
2021/12/11 00:52:45;;;;;;;42.20;23.42;;;1.10;99.90;;;;;;5007963;28;20408;-54
2021/12/11 00:55:24;;;;;;;48.20;25.88;;;1.10;99.90;;;;;;5008827;28;20392;-54
2021/12/11 00:58:20;;;;;;;48.35;23.85;;;1.10;99.90;;;;;;5008237;28;20022;-54
2021/12/11 01:00:57;;;;;;;47.08;23.42;;;1.10;99.90;;;;;;5008102;28;20081;-56
2021/12/11 01:03:45;;;;;;;50.15;25.88;;;1.10;99.90;;;;;;5008373;28;20484;-51
2021/12/11 01:06:29;;;;;;;54.08;25.90;;;1.10;99.90;;;;;;5008381;28;20045;-54
2021/12/11 01:08:59;;;;;;;45.03;23.73;;;1.10;99.90;;;;;;5007826;28;20030;-55
2021/12/11 01:11:49;;;;;;;47.55;24.63;;;1.10;99.90;;;;;;5008525;28;20040;-54
2021/12/11 01:14:28;;;;;;;46.95;25.23;;;1.10;99.90;;;;;;5009972;28;20061;-51
2021/12/11 01:17:02;;;;;;;45.63;24.55;;;1.10;99.90;;;;;;5008214;28;20488;-54
2021/12/11 01:19:28;;;;;;;52.13;24.77;;;1.10;99.90;;;;;;5008104;28;20041;-56
2021/12/11 01:21:59;;;;;;;40.08;23.25;;;1.10;99.90;;;;;;5006813;28;20125;-54
2021/12/11 01:24:44;;;;;;;42.95;23.63;;;1.10;99.90;;;;;;5007474;28;20477;-54
2021/12/11 01:27:15;;;;;;;49.53;26.17;;;1.10;99.90;;;;;;5009634;28;20153;-49
2021/12/11 01:29:42;;;;;;;48.85;27.05;;;1.10;99.90;;;;;;5007580;28;20039;-53
2021/12/11 01:32:10;;;;;;;44.92;25.30;;;1.10;99.90;;;;;;5008353;28;20033;-54
2021/12/11 01:34:36;;;;;;;55.30;26.33;;;1.10;99.90;;;;;;5008388;28;20109;-50
2021/12/11 01:37:03;;;;;;;58.65;26.38;;;1.10;99.90;;;;;;5008089;28;20108;-53
2021/12/11 01:39:33;;;;;;;50.38;26.80;;;1.10;99.90;;;;;;5007601;28;20499;-55
2021/12/11 01:41:59;;;;;;;49.20;25.45;;;1.10;99.90;;;;;;5008394;28;20030;-49
2021/12/11 01:44:30;;;;;;;45.08;24.15;;;1.10;99.90;;;;;;5003053;28;20033;-57
2021/12/11 01:47:09;;;;;;;50.55;26.75;;;1.10;99.90;;;;;;5007374;28;20112;-50
2021/12/11 01:49:37;;;;;;;45.50;25.10;;;1.10;99.90;;;;;;5006605;28;20042;-57
2021/12/11 01:52:29;;;;;;;50.08;23.48;;;1.10;99.90;;;;;;5007719;28;20053;-52
2021/12/11 01:54:56;;;;;;;45.95;23.85;;;1.10;99.90;;;;;;4993726;28;20121;-51
2021/12/11 01:57:28;;;;;;;42.58;23.52;;;1.10;99.90;;;;;;5007865;28;20052;-52
2021/12/11 02:00:06;;;;;;;42.20;22.92;;;1.10;99.90;;;;;;5004514;28;20495;-53
2021/12/11 02:02:40;;;;;;;47.60;24.85;;;1.10;99.90;;;;;;5005555;28;20041;-54
2021/12/11 02:05:09;;;;;;;48.33;24.95;;;1.10;99.90;;;;;;5008495;28;20037;-51
2021/12/11 02:07:48;;;;;;;45.75;24.48;;;1.10;99.90;;;;;;5011640;28;20045;-51
2021/12/11 02:10:38;;;;;;;44.65;24.58;;;1.10;99.90;;;;;;4991123;28;20040;-54
2021/12/11 02:13:07;;;;;;;47.40;25.45;;;1.10;99.90;;;;;;5003996;28;20063;-49
2021/12/11 02:15:37;;;;;;;43.20;23.77;;;1.10;99.90;;;;;;5010440;28;20030;-51
2021/12/11 02:18:12;;;;;;;47.22;24.23;;;1.00;99.90;;;;;;4997686;28;20087;-52
2021/12/11 02:20:43;;;;;;;47.25;24.77;;;1.10;99.90;;;;;;5011569;28;20058;-57
2021/12/11 02:23:11;;;;;;;48.03;23.55;;;1.10;99.90;;;;;;5011136;28;20176;-49
2021/12/11 02:25:41;;;;;;;44.53;23.52;;;1.10;99.90;;;;;;5011727;28;20034;-57
2021/12/11 02:28:17;;;;;;;44.72;24.75;;;1.10;99.90;;;;;;5011038;28;20033;-52
2021/12/11 02:31:05;;;;;;;46.75;22.48;;;1.10;99.90;;;;;;5005154;28;20421;-52
2021/12/11 02:33:55;;;;;;;40.78;22.67;;;1.00;99.90;;;;;;5010884;28;20088;-54
2021/12/11 02:36:27;;;;;;;42.80;22.45;;;1.00;99.90;;;;;;4997152;28;20166;-52
2021/12/11 02:39:17;;;;;;;49.22;23.48;;;1.10;99.90;;;;;;5004541;28;20033;-56
2021/12/11 02:42:12;;;;;;;47.00;25.52;;;1.00;99.90;;;;;;5009320;28;20440;-57
2021/12/11 02:44:57;;;;;;;51.45;24.48;;;1.10;99.90;;;;;;5009021;28;20053;-52
2021/12/11 02:47:31;;;;;;;42.75;22.40;;;1.10;99.90;;;;;;5010385;28;20029;-56
2021/12/11 02:50:03;;;;;;;45.47;23.20;;;1.10;99.90;;;;;;5009138;28;20026;-59
2021/12/11 02:52:40;;;;;;;41.17;22.45;;;1.10;99.90;;;;;;5009702;28;20052;-51
2021/12/11 02:55:15;;;;;;;44.63;23.30;;;1.10;99.90;;;;;;5010771;28;20389;-50
2021/12/11 02:57:48;;;;;;;44.58;23.75;;;1.00;99.90;;;;;;5010619;28;20033;-54
2021/12/11 03:00:19;;;;;;;47.13;23.83;;;1.00;99.90;;;;;;5010708;28;20030;-51
2021/12/11 03:02:49;;;;;;;52.15;25.90;;;1.00;99.90;;;;;;5010417;28;20021;-51
2021/12/11 03:05:21;;;;;;;49.25;25.95;;;1.00;99.90;;;;;;5022772;22;20038;-52
2021/12/11 03:07:51;;;;;;;52.50;24.40;;;1.00;99.90;;;;;;5024340;28;20045;-52
2021/12/11 03:10:24;;;;;;;49.08;22.55;;;1.00;99.90;;;;;;5010003;28;20023;-55
2021/12/11 03:12:52;;;;;;;43.75;24.17;;;1.10;99.90;;;;;;5010465;28;20030;-52
2021/12/11 03:15:18;;;;;;;43.95;24.10;;;1.10;99.90;;;;;;4997878;28;20026;-54
2021/12/11 03:17:44;;;;;;;52.33;25.73;;;1.00;99.90;;;;;;4983455;28;20026;-54
2021/12/11 03:20:13;;;;;;;40.83;23.13;;;1.10;99.90;;;;;;4989667;28;20023;-53
2021/12/11 03:22:41;;;;;;;45.58;23.77;;;1.10;99.90;;;;;;4990326;28;20338;-52
2021/12/11 03:25:12;;;;;;;40.22;22.75;;;1.10;99.90;;;;;;4988817;28;20146;-52
2021/12/11 03:27:40;;;;;;;45.65;23.58;;;1.10;99.90;;;;;;4990119;28;20081;-53
2021/12/11 03:30:09;;;;;;;46.13;24.60;;;1.10;99.90;;;;;;4990380;28;20127;-53
2021/12/11 03:32:35;;;;;;;45.92;24.15;;;1.10;99.90;;;;;;4990230;28;20030;-53
2021/12/11 03:35:05;;;;;;;49.65;24.85;;;1.10;99.90;;;;;;4990674;28;20022;-53
2021/12/11 03:37:31;;;;;;;49.78;25.50;;;1.10;99.90;;;;;;4990167;28;20038;-54
2021/12/11 03:39:57;;;;;;;46.53;23.75;;;1.10;99.90;;;;;;4990832;28;20101;-52
2021/12/11 03:42:30;;;;;;;46.00;23.05;;;1.10;99.90;;;;;;4989306;28;20122;-52
2021/12/11 03:44:56;;;;;;;43.88;24.13;;;1.10;99.90;;;;;;4990323;28;20023;-56
2021/12/11 03:47:28;;;;;;;42.60;23.48;;;1.00;99.90;;;;;;4989706;28;20034;-52
2021/12/11 03:49:54;;;;;;;45.78;23.45;;;1.10;99.90;;;;;;4989627;28;20034;-55
2021/12/11 03:52:20;;;;;;;44.55;21.58;;;1.00;99.90;;;;;;4990207;28;20029;-52
2021/12/11 03:54:48;;;;;;;43.65;22.70;;;1.00;99.90;;;;;;4990046;28;20028;-53
2021/12/11 03:57:16;;;;;;;44.28;23.20;;;1.00;99.90;;;;;;4989746;28;20027;-51
2021/12/11 03:59:48;;;;;;;46.00;23.73;;;1.00;99.90;;;;;;4989470;28;20444;-52
2021/12/11 04:02:17;;;;;;;43.92;23.15;;;1.00;99.90;;;;;;4989679;28;20030;-53
2021/12/11 04:04:48;;;;;;;48.20;24.15;;;1.00;99.90;;;;;;4989080;28;20538;-54
2021/12/11 04:07:18;;;;;;;46.78;22.05;;;1.00;99.90;;;;;;4989581;28;20045;-51
2021/12/11 04:09:46;;;;;;;45.50;22.80;;;1.00;99.90;;;;;;4975182;28;20045;-51
2021/12/11 04:12:12;;;;;;;45.92;24.27;;;0.90;99.90;;;;;;4987922;28;20026;-55
2021/12/11 04:14:41;;;;;;;44.83;23.20;;;0.90;99.90;;;;;;4989634;28;20158;-53
2021/12/11 04:17:14;;;;;;;41.03;22.83;;;0.90;99.90;;;;;;4989753;28;20022;-54
2021/12/11 04:19:41;;;;;;;47.60;23.08;;;0.90;99.90;;;;;;4989614;28;20486;-52
2021/12/11 04:22:07;;;;;;;43.03;22.52;;;0.90;99.90;;;;;;4989165;28;20042;-54
2021/12/11 04:24:36;;;;;;;43.00;19.50;;;0.90;99.90;;;;;;4989470;28;20507;-56
2021/12/11 04:27:05;;;;;;;43.35;23.27;;;0.90;99.90;;;;;;4989501;28;20113;-57
2021/12/11 04:29:31;;;;;;;43.65;22.60;;;0.90;99.90;;;;;;4987577;28;20037;-53
2021/12/11 04:32:00;;;;;;;37.67;20.50;;;0.90;99.90;;;;;;4989394;28;20038;-53
2021/12/11 04:34:26;;;;;;;42.42;22.70;;;0.90;99.90;;;;;;4988399;28;20030;-54
2021/12/11 04:37:01;;;;;;;43.47;23.27;;;0.90;99.90;;;;;;4988574;28;20041;-54
2021/12/11 04:39:33;;;;;;;39.20;22.08;;;0.90;99.90;;;;;;4988818;28;20489;-51
2021/12/11 04:42:05;;;;;;;47.00;23.58;;;0.90;99.90;;;;;;4989044;28;20062;-52
2021/12/11 04:44:37;;;;;;;40.03;21.63;;;0.90;99.90;;;;;;4988661;28;20445;-52
2021/12/11 04:47:07;;;;;;;49.88;23.63;;;0.90;99.90;;;;;;4989075;28;20547;-55
2021/12/11 04:49:40;;;;;;;45.67;21.95;;;0.90;99.90;;;;;;4988782;28;20033;-56
2021/12/11 04:52:18;;;;;;;42.38;21.77;;;0.80;99.90;;;;;;4989426;28;20041;-56
2021/12/11 04:57:48;;;;;;;45.72;22.90;;;0.90;99.90;;;;;;4988936;28;20019;-53
2021/12/11 05:00:08;;;;;;;46.63;24.20;;;0.90;99.90;;;;;;4988804;28;20037;-52
2021/12/11 05:05:32;;;;;;;42.88;22.15;;;0.90;99.90;;;;;;4969273;28;20035;-55
2021/12/11 05:13:24;;;;;;;39.90;21.45;;;0.90;99.90;;;;;;4980378;28;20539;-55
2021/12/11 05:15:52;;;;;;;41.92;22.77;;;0.90;99.90;;;;;;4988767;28;20420;-54
2021/12/11 05:18:22;;;;;;;40.72;21.88;;;0.90;99.90;;;;;;4988051;28;20037;-53
2021/12/11 05:20:52;;;;;;;39.45;21.35;;;0.90;99.90;;;;;;4988541;28;20038;-56
2021/12/11 05:23:18;;;;;;;37.53;21.80;;;0.90;99.90;;;;;;4987715;28;20042;-56
2021/12/11 05:25:44;;;;;;;43.00;22.90;;;0.90;99.90;;;;;;4989101;28;20026;-53
2021/12/11 05:28:10;;;;;;;43.65;23.13;;;0.90;99.90;;;;;;4988262;28;20531;-55
2021/12/11 05:30:40;;;;;;;36.53;20.20;;;0.90;99.90;;;;;;4988921;28;20038;-52
2021/12/11 05:33:06;;;;;;;41.90;22.27;;;0.80;99.90;;;;;;4988266;28;20018;-50
2021/12/11 05:35:34;;;;;;;41.47;21.85;;;0.90;99.90;;;;;;4988406;28;20036;-54
2021/12/11 05:38:00;;;;;;;41.35;20.45;;;0.80;99.90;;;;;;4988041;28;20038;-54
2021/12/11 05:40:28;;;;;;;42.20;22.27;;;0.80;99.90;;;;;;4990809;28;20109;-51
2021/12/11 05:42:55;;;;;;;40.53;22.63;;;0.80;99.90;;;;;;4992342;28;20556;-53
2021/12/11 05:45:20;;;;;;;48.92;22.58;;;0.70;99.90;;;;;;4992582;28;20022;-52
2021/12/11 05:47:47;;;;;;;38.75;23.05;;;0.70;99.90;;;;;;4991854;28;20370;-54
2021/12/11 05:50:22;;;;;;;42.72;21.10;;;0.70;99.90;;;;;;4992320;28;20030;-56
2021/12/11 05:52:48;;;;;;;38.67;21.20;;;0.60;99.90;;;;;;4991888;28;20430;-52
2021/12/11 05:55:17;;;;;;;43.58;21.35;;;0.60;99.90;;;;;;4991995;28;20050;-53
2021/12/11 05:57:50;;;;;;;39.67;21.40;;;0.60;99.90;;;;;;4991792;28;20435;-54
2021/12/11 06:00:19;;;;;;;39.58;21.55;;;0.60;99.90;;;;;;4992409;28;20022;-51
2021/12/11 06:02:45;;;;;;;45.35;23.13;;;0.60;99.90;;;;;;4991795;28;20691;-55
2021/12/11 06:05:10;;;;;;;40.55;21.02;;;0.50;99.90;;;;;;4991807;28;20026;-55
2021/12/11 06:07:37;;;;;;;41.28;21.67;;;0.50;99.90;;;;;;4991645;28;20096;-56
2021/12/11 06:10:14;;;;;;;42.45;21.52;;;0.50;99.90;;;;;;4991779;28;20084;-54
2021/12/11 06:12:41;;;;;;;35.95;19.67;;;0.40;99.90;;;;;;4991756;28;20022;-55
2021/12/11 06:15:07;;;;;;;37.25;19.85;;;0.40;99.90;;;;;;4990535;28;20050;-52
2021/12/11 06:17:34;;;;;;;39.33;22.33;;;0.40;99.90;;;;;;4991259;28;20026;-53
2021/12/11 06:20:03;;;;;;;43.40;20.35;;;0.40;99.90;;;;;;4991702;28;20370;-56
2021/12/11 06:22:32;;;;;;;40.65;20.40;;;0.30;99.90;;;;;;4992135;28;20062;-52
2021/12/11 06:25:07;;;;;;;38.95;19.40;;;0.30;99.90;;;;;;4989464;28;20045;-53
2021/12/11 06:27:33;;;;;;;35.08;19.23;;;0.30;99.90;;;;;;4991151;28;20030;-52
2021/12/11 06:29:59;;;;;;;44.90;22.58;;;0.20;99.90;;;;;;4992038;28;20443;-51
2021/12/11 06:32:25;;;;;;;36.08;18.80;;;0.20;99.90;;;;;;4991197;28;20034;-54
2021/12/11 06:34:55;;;;;;;42.65;19.58;;;0.10;99.90;;;;;;4991239;28;20145;-55
2021/12/11 06:37:21;;;;;;;35.38;18.88;;;0.10;99.90;;;;;;4991060;28;20030;-54
2021/12/11 06:39:49;;;;;;;34.00;19.98;;;0.10;99.90;;;;;;4990593;28;20045;-54
2021/12/11 06:42:16;;;;;;;36.50;19.73;;;0.10;99.90;;;;;;4991424;28;20396;-53
2021/12/11 06:44:41;;;;;;;37.53;18.73;;;0.00;99.90;;;;;;4991378;28;20042;-54
2021/12/11 06:47:09;;;;;;;38.13;20.17;;;0.00;99.90;;;;;;4991423;28;20026;-50
2021/12/11 06:49:38;;;;;;;36.33;19.73;;;0.00;99.90;;;;;;4990779;28;20034;-54
2021/12/11 06:52:10;;;;;;;33.22;18.52;;;0.00;99.90;;;;;;4989967;28;20065;-55
2021/12/11 06:54:36;;;;;;;30.35;18.00;;;-0.10;99.90;;;;;;4991134;28;20611;-55
2021/12/11 06:57:02;;;;;;;39.55;19.42;;;-0.10;99.90;;;;;;4990625;28;20081;-55
2021/12/11 06:59:27;;;;;;;39.67;18.83;;;-0.10;99.90;;;;;;4988250;28;20069;-51
2021/12/11 07:01:53;;;;;;;36.17;17.95;;;-0.20;99.90;;;;;;4990760;28;20547;-52
2021/12/11 07:04:19;;;;;;;30.45;17.00;;;-0.20;99.90;;;;;;4990596;28;20117;-54
2021/12/11 07:06:49;;;;;;;37.95;20.08;;;-0.20;99.90;;;;;;4990151;28;20113;-52
2021/12/11 07:09:18;;;;;;;35.00;18.90;;;-0.30;99.90;;;;;;4989085;28;20141;-50
2021/12/11 07:11:45;;;;;;;32.35;18.58;;;-0.20;99.90;;;;;;4990894;28;20030;-52
2021/12/11 07:14:13;;;;;;;37.17;18.45;;;-0.30;99.90;;;;;;4990847;28;20026;-51
2021/12/11 07:16:39;;;;;;;37.72;19.15;;;-0.30;99.90;;;;;;4990307;28;20042;-53
2021/12/11 07:19:06;;;;;;;34.85;18.63;;;-0.30;99.90;;;;;;4990855;28;20033;-52
2021/12/11 07:21:32;;;;;;;29.95;16.40;;;-0.30;99.90;;;;;;4988997;28;20080;-53
2021/12/11 07:23:58;;;;;;;31.15;19.13;;;-0.30;99.90;;;;;;4989800;28;20129;-53
2021/12/11 07:26:34;;;;;;;29.17;17.73;;;-0.30;99.90;;;;;;5000353;28;20034;-55
2021/12/11 07:29:04;;;;;;;34.85;16.15;;;-0.30;99.90;;;;;;4970913;28;20033;-50
2021/12/11 07:31:30;;;;;;;30.95;18.42;;;-0.30;99.90;;;;;;4978889;28;20570;-50
2021/12/11 07:33:57;;;;;;;35.33;18.88;;;-0.30;99.90;;;;;;4990334;28;20029;-52
2021/12/11 07:36:23;;;;;;;34.10;18.35;;;-0.30;99.90;;;;;;4990280;28;20077;-50
2021/12/11 07:38:50;;;;;;;27.75;17.98;;;-0.30;99.90;;;;;;5004979;28;20032;-51
2021/12/11 07:41:17;;;;;;;40.15;20.10;;;-0.30;99.90;;;;;;4989868;28;20033;-53
2021/12/11 07:43:44;;;;;;;35.13;17.75;;;-0.30;99.90;;;;;;4990038;28;20523;-53
2021/12/11 07:46:15;;;;;;;39.20;19.05;;;-0.30;99.90;;;;;;4989887;28;20030;-54
2021/12/11 07:48:42;;;;;;;36.75;19.80;;;-0.20;99.90;;;;;;4990208;28;20022;-52
2021/12/11 07:51:08;;;;;;;44.65;23.90;;;-0.20;99.90;;;;;;4990326;28;20040;-52
2021/12/11 07:53:34;;;;;;;38.67;20.65;;;-0.20;99.90;;;;;;4990066;28;20023;-52
2021/12/11 07:56:00;;;;;;;42.08;22.58;;;-0.20;99.90;;;;;;4990282;28;20046;-51
2021/12/11 07:58:26;;;;;;;42.13;23.58;;;-0.20;99.90;;;;;;4989716;28;20485;-52
2021/12/11 08:00:52;;;;;;;39.20;22.48;;;-0.10;99.90;;;;;;4989757;28;20046;-52
2021/12/11 08:03:19;;;;;;;46.55;24.80;;;-0.10;99.90;;;;;;4989647;28;20120;-51
2021/12/11 08:05:48;;;;;;;41.05;22.60;;;-0.10;99.90;;;;;;4989375;28;20037;-50
2021/12/11 08:08:15;;;;;;;37.97;22.10;;;0.00;99.90;;;;;;4989588;28;20026;-51
2021/12/11 08:10:44;;;;;;;36.47;20.02;;;0.00;99.90;;;;;;4989596;28;20033;-52
2021/12/11 08:13:11;;;;;;;29.67;18.17;;;0.00;99.90;;;;;;4989650;28;20030;-54
2021/12/11 08:15:38;;;;;;;41.70;20.85;;;0.10;99.90;;;;;;4989081;28;20038;-51
2021/12/11 08:18:06;;;;;;;39.08;19.67;;;0.10;99.90;;;;;;4988843;28;20026;-53
2021/12/11 08:20:33;;;;;;;39.38;18.38;;;0.20;99.90;;;;;;4989099;28;20024;-52
2021/12/11 08:22:59;;;;;;;36.70;18.42;;;0.20;99.90;;;;;;4988670;28;20038;-55
2021/12/11 08:25:28;;;;;;;39.78;20.52;;;0.20;99.90;;;;;;4989650;28;20134;-53
2021/12/11 08:27:57;;;;;;;35.60;19.27;;;0.30;99.90;;;;;;4988880;28;20061;-51
2021/12/11 08:30:25;;;;;;;34.13;17.58;;;0.40;99.90;;;;;;4987922;28;20034;-52
2021/12/11 08:32:51;;;;;;;36.75;19.15;;;0.40;99.90;;;;;;4988952;28;20030;-54
2021/12/11 08:35:18;;;;;;;36.58;18.20;;;0.40;99.90;;;;;;4988149;28;20378;-51
2021/12/11 08:37:50;;;;;;;33.20;17.88;;;0.40;99.90;;;;;;4988985;28;20022;-52
2021/12/11 08:40:24;;;;;;;34.53;18.65;;;0.50;99.90;;;;;;5004835;28;20307;-55
2021/12/11 08:42:50;;;;;;;42.38;19.98;;;0.50;99.90;;;;;;4987707;28;20030;-53
2021/12/11 08:45:25;;;;;;;34.85;18.27;;;0.60;99.90;;;;;;4988386;28;20039;-51
2021/12/11 08:47:56;;;;;;;33.97;18.30;;;0.60;99.90;;;;;;4995792;28;20354;-50
2021/12/11 08:50:25;;;;;;;30.70;17.60;;;0.60;99.90;;;;;;4989334;28;20034;-52
2021/12/11 08:52:53;;;;;;;38.83;19.75;;;0.70;99.90;;;;;;5003806;28;20080;-53
2021/12/11 08:55:28;;;;;;;38.05;19.20;;;0.70;99.90;;;;;;5004095;28;20485;-51
2021/12/11 08:57:55;;;;;;;33.88;18.48;;;0.70;99.90;;;;;;4988863;28;20038;-55
2021/12/11 09:00:40;;;;;;;35.78;18.60;;;0.70;99.90;;;;;;4988433;28;20080;-53
2021/12/11 09:03:15;;;;;;;34.83;19.33;;;0.70;99.90;;;;;;4988210;28;20089;-51
2021/12/11 09:05:54;;;;;;;35.47;19.98;;;0.80;99.90;;;;;;4988736;28;20146;-54
2021/12/11 09:08:28;;;;;;;28.98;17.42;;;0.80;99.90;;;;;;5028277;22;20084;-58
2021/12/11 09:11:00;;;;;;;32.05;18.27;;;0.80;99.90;;;;;;5028047;28;20092;-54
2021/12/11 09:13:35;;;;;;;32.40;17.67;;;0.90;99.90;;;;;;5028527;28;20045;-52
2021/12/11 09:16:08;;;;;;;31.73;17.77;;;0.90;99.90;;;;;;5027413;28;20412;-57
2021/12/11 09:18:45;;;;;;;30.67;18.25;;;0.90;99.90;;;;;;5025798;28;20021;-56
2021/12/11 09:21:25;;;;;;;35.28;18.27;;;1.00;99.90;;;;;;5027235;28;20369;-54
2021/12/11 09:24:07;;;;;;;33.28;17.48;;;1.00;99.90;;;;;;5028296;28;20030;-57
2021/12/11 09:26:42;;;;;;;29.55;17.75;;;1.00;99.90;;;;;;5007144;28;20468;-58
2021/12/11 09:29:17;;;;;;;35.00;19.13;;;1.00;99.90;;;;;;5027519;28;20096;-56
2021/12/11 09:31:57;;;;;;;36.13;17.92;;;1.10;99.90;;;;;;5027556;28;20022;-53
2021/12/11 09:34:27;;;;;;;29.63;17.98;;;1.10;99.90;;;;;;5025946;28;20080;-54
2021/12/11 09:36:57;;;;;;;31.50;18.05;;;1.20;99.90;;;;;;5028431;28;20021;-57
2021/12/11 09:39:36;;;;;;;31.33;18.70;;;1.20;99.90;;;;;;5028680;28;20029;-57
2021/12/11 09:42:01;;;;;;;33.03;17.42;;;1.30;99.90;;;;;;5028074;28;20033;-55
2021/12/11 09:44:33;;;;;;;37.70;19.67;;;1.30;99.90;;;;;;5028077;28;20095;-55
2021/12/11 09:47:00;;;;;;;35.33;19.13;;;1.30;99.90;;;;;;5028219;28;20025;-54
2021/12/11 09:49:31;;;;;;;36.60;18.70;;;1.40;99.90;;;;;;5026621;28;20055;-57
2021/12/11 09:52:03;;;;;;;32.53;18.80;;;1.40;99.90;;;;;;5027654;28;20025;-55
2021/12/11 09:54:32;;;;;;;36.13;18.17;;;1.40;99.90;;;;;;5027529;28;20040;-55
2021/12/11 09:57:07;;;;;;;31.45;17.27;;;1.40;99.90;;;;;;5027616;28;20025;-59
2021/12/11 09:59:36;;;;;;;33.25;18.88;;;1.40;99.90;;;;;;5025465;28;20021;-57
2021/12/11 10:02:08;;;;;;;31.58;18.77;;;1.50;99.90;;;;;;5028451;28;20033;-57
2021/12/11 10:04:47;;;;;;;33.67;18.30;;;1.60;99.90;;;;;;5027722;28;20021;-52
2021/12/11 10:07:29;;;;;;;33.75;18.45;;;1.60;99.90;;;;;;5027536;28;20056;-56
2021/12/11 10:10:02;;;;;;;34.08;19.00;;;1.60;99.90;;;;;;5027313;28;20033;-58
2021/12/11 10:12:33;;;;;;;29.80;18.08;;;1.70;99.90;;;;;;5027499;28;20037;-56
2021/12/11 10:15:09;;;;;;;31.42;18.42;;;1.70;99.90;;;;;;5024453;28;20061;-56
2021/12/11 10:17:40;;;;;;;31.23;18.58;;;1.80;99.90;;;;;;5008053;28;20053;-59
2021/12/11 10:20:24;;;;;;;30.48;18.35;;;1.80;99.90;;;;;;5017418;28;20061;-53
2021/12/11 10:22:52;;;;;;;35.53;17.75;;;1.80;99.90;;;;;;5027511;28;20053;-55
2021/12/11 10:25:27;;;;;;;36.08;18.15;;;1.90;99.90;;;;;;5026479;28;20042;-57
2021/12/11 10:27:53;;;;;;;29.27;18.65;;;1.90;99.90;;;;;;5030196;28;20499;-55
2021/12/11 10:30:21;;;;;;;32.70;18.67;;;2.00;99.90;;;;;;5030104;28;20078;-53
2021/12/11 10:32:47;;;;;;;29.75;18.25;;;2.10;99.90;;;;;;5029714;28;20441;-58
2021/12/11 10:35:19;;;;;;;30.50;18.75;;;2.10;99.90;;;;;;5030558;28;20125;-54
2021/12/11 10:37:45;;;;;;;29.42;17.77;;;2.20;99.90;;;;;;5029005;28;20021;-54
2021/12/11 10:40:20;;;;;;;32.38;17.80;;;2.30;99.90;;;;;;5031649;28;20033;-54
2021/12/11 10:42:55;;;;;;;34.87;19.80;;;2.40;99.90;;;;;;5028980;28;20037;-55
2021/12/11 10:45:22;;;;;;;33.55;17.35;;;2.40;99.90;;;;;;5028374;28;20047;-57
2021/12/11 10:47:51;;;;;;;28.33;16.58;;;2.40;99.90;;;;;;5022856;28;20030;-53
2021/12/11 10:50:38;;;;;;;30.65;18.40;;;2.40;99.90;;;;;;5028355;28;20021;-55
2021/12/11 10:53:05;;;;;;;;;;;2.50;99.90;;;;;;5031314;28;20040;-58
2021/12/11 10:55:32;;;;;;;;;;;2.50;99.90;;;;;;5031103;28;19990;-57
2021/12/11 10:58:01;;;;;;;28.85;16.88;;;2.50;99.90;;;;;;5030068;28;20302;-52
2021/12/11 11:00:31;;;;;;;27.70;17.58;;;2.40;99.90;;;;;;5030195;28;20557;-52
2021/12/11 11:02:57;;;;;;;31.08;17.63;;;2.50;99.90;;;;;;5031219;28;20029;-54
2021/12/11 11:05:25;;;;;;;26.92;16.85;;;2.50;99.90;;;;;;5030475;28;20037;-58
2021/12/11 11:07:51;;;;;;;30.23;17.35;;;2.50;99.90;;;;;;5029739;28;20041;-57
2021/12/11 11:10:25;;;;;;;27.75;16.90;;;2.50;99.90;;;;;;5028651;28;20484;-57
2021/12/11 11:12:53;;;;;;;27.40;17.45;;;2.60;99.90;;;;;;5030251;28;20037;-58
2021/12/11 11:15:21;;;;;;;30.42;17.42;;;2.60;99.90;;;;;;5029025;28;20025;-54
2021/12/11 11:17:47;;;;;;;26.33;16.90;;;2.60;99.90;;;;;;5026485;28;20380;-53
2021/12/11 11:20:18;;;;;;;32.63;16.17;;;2.60;99.90;;;;;;5009890;28;20503;-58
2021/12/11 11:22:45;;;;;;;25.92;15.73;;;2.60;99.90;;;;;;5030391;28;20068;-56
2021/12/11 11:25:17;;;;;;;25.45;16.08;;;2.60;99.90;;;;;;5028140;28;20025;-57
2021/12/11 11:27:45;;;;;;;29.95;16.08;;;2.60;99.90;;;;;;5029885;28;20029;-56
2021/12/11 11:30:18;;;;;;;26.75;16.35;;;2.60;99.90;;;;;;5027646;28;20033;-53
2021/12/11 11:32:44;;;;;;;23.40;15.77;;;2.60;99.90;;;;;;5024246;28;20112;-57
2021/12/11 11:35:14;;;;;;;25.40;16.13;;;2.70;99.90;;;;;;5020095;28;20065;-57
2021/12/11 11:37:40;;;;;;;27.83;16.90;;;2.70;99.90;;;;;;5016703;28;20382;-56
2021/12/11 11:40:13;;;;;;;25.85;15.23;;;2.70;99.90;;;;;;5019683;28;20021;-57
2021/12/11 11:42:40;;;;;;;28.55;17.05;;;2.70;99.90;;;;;;5019032;28;20025;-56
2021/12/11 11:45:08;;;;;;;28.48;17.13;;;2.80;99.90;;;;;;5019031;28;20022;-57
2021/12/11 11:47:33;;;;;;;26.20;15.38;;;2.80;99.90;;;;;;5018559;28;20542;-60
2021/12/11 11:49:59;;;;;;;23.85;16.25;;;2.90;99.90;;;;;;5018024;28;20029;-55
2021/12/11 11:52:27;;;;;;;27.90;17.50;;;2.90;99.90;;;;;;5018873;28;20061;-55
2021/12/11 11:54:56;;;;;;;26.27;14.82;;;2.90;99.90;;;;;;5017364;28;20018;-54
2021/12/11 11:57:27;;;;;;;24.58;15.27;;;3.00;99.90;;;;;;5017409;28;20390;-56
2021/12/11 11:59:55;;;;;;;26.60;15.00;;;3.00;99.90;;;;;;5020726;28;20028;-55
2021/12/11 12:02:22;;;;;;;26.50;15.48;;;3.00;99.90;;;;;;5019992;28;20399;-57
2021/12/11 12:04:51;;;;;;;24.80;14.75;;;3.00;99.90;;;;;;5021120;28;20022;-54
2021/12/11 12:07:24;;;;;;;21.05;13.73;;;3.00;99.90;;;;;;5019038;28;20033;-51
2021/12/11 12:09:51;;;;;;;24.65;13.93;;;3.00;99.90;;;;;;5017894;28;20809;-55
2021/12/11 12:12:17;;;;;;;23.98;15.80;;;3.10;99.90;;;;;;5019515;28;20029;-58
2021/12/11 12:14:45;;;;;;;28.23;19.60;;;3.10;99.90;;;;;;5018086;28;20033;-55
2021/12/11 12:17:14;;;;;;;27.08;18.23;;;3.10;99.90;;;;;;5018527;28;20029;-59
2021/12/11 12:19:40;;;;;;;23.42;18.45;;;3.20;99.90;;;;;;5017236;28;20087;-54
2021/12/11 12:22:10;;;;;;;32.92;25.40;;;3.20;99.90;;;;;;5018119;28;20109;-56
2021/12/11 12:24:39;;;;;;;24.23;15.90;;;3.30;99.90;;;;;;5018452;28;20036;-58
2021/12/11 12:27:08;;;;;;;32.90;24.00;;;3.30;99.90;;;;;;5017764;28;20268;-53
2021/12/11 12:29:36;;;;;;;25.98;18.00;;;3.20;99.90;;;;;;5017578;28;20427;-58
2021/12/11 12:32:12;;;;;;;22.98;16.00;;;3.30;99.90;;;;;;5018734;28;20045;-58
2021/12/11 12:34:38;;;;;;;87.35;60.20;;;3.30;99.90;;;;;;5017408;28;20017;-60
2021/12/11 12:37:06;;;;;;;42.50;29.67;;;3.20;99.90;;;;;;5017395;28;20537;-58
2021/12/11 12:39:38;;;;;;;27.13;19.48;;;3.20;99.90;;;;;;5017794;28;20491;-56
2021/12/11 12:42:27;;;;;;;28.77;20.67;;;3.20;99.90;;;;;;5017794;28;20495;-58
2021/12/11 12:44:58;;;;;;;33.03;26.13;;;3.20;99.90;;;;;;5018170;28;20436;-54
2021/12/11 12:47:29;;;;;;;20.77;13.35;;;3.20;99.90;;;;;;5017560;28;20101;-57
2021/12/11 12:49:57;;;;;;;20.60;12.93;;;3.20;99.90;;;;;;5016696;28;20060;-58
2021/12/11 12:52:32;;;;;;;15.77;12.10;;;3.20;99.90;;;;;;5017881;28;20026;-53
2021/12/11 12:54:59;;;;;;;23.75;14.27;;;3.20;99.90;;;;;;5017623;28;20108;-57
2021/12/11 12:57:33;;;;;;;22.27;12.80;;;3.30;99.90;;;;;;5017739;28;20014;-54
2021/12/11 13:00:24;;;;;;;19.60;13.30;;;3.30;99.90;;;;;;5017587;28;20056;-54
2021/12/11 13:02:54;;;;;;;24.02;13.27;;;3.30;99.90;;;;;;5016692;28;20112;-57
2021/12/11 13:05:27;;;;;;;20.55;13.70;;;3.30;99.90;;;;;;5018012;28;20026;-58